Latest Weather Observations for Port Macquarie Airport

IDN60801

Issued at 6:32 pm EDT Tuesday 28 February 2017 (issued every 30 minutes, with the page automatically refreshed every 10 minutes)

About weather observations | Map of weather stations | Latest weather observations for NSW | Other Formats
Station Details ID: 060139 Name: PORT MACQUARIE AIRPORT AWS Lat: -31.43 Lon: 152.87 Height: 4.2 m
Data from the previous 72 hours. | See also: Recent months at Port Macquarie Airport
Date/Time
EDT
Temp
°C
App
Temp
°C
Dew
Point
°C
Rel
Hum
%
Delta-T
°C
Wind Press
QNH
hPa
Press
MSL
hPa
Rain since
9am
mm
Dir  Spd
km/h
Gust
km/h
Spd
kts
Gust
kts
28/06:00pm 21.2 23.9 20.7 97 0.3 SW 7 9 4 5 1018.1 1018.1 15.0
28/05:30pm 20.7 22.8 20.2 97 0.3 SW 9 11 5 6 1018.0 1018.0 14.6
28/05:00pm 20.6 21.5 20.1 97 0.3 SW 15 19 8 10 1018.0 1018.0 14.2
28/04:30pm 20.4 22.0 19.9 97 0.3 SW 11 20 6 11 1018.2 1018.2 12.8
28/04:02pm 20.3 22.1 19.6 96 0.4 S 9 11 5 6 1018.5 1018.5 11.2
28/04:00pm 20.3 22.1 19.6 96 0.4 SSW 9 13 5 7 1018.6 1018.6 11.0
28/03:35pm 20.6 21.6 19.4 93 0.8 S 13 17 7 9 1018.8 1018.8 6.8
28/03:30pm 20.9 22.8 19.7 93 0.8 SSE 9 15 5 8 1019.0 1019.0 5.0
28/03:00pm 21.8 24.0 20.3 91 1.0 SW 9 13 5 7 1018.7 1018.7 3.4
28/02:30pm 21.7 22.7 20.3 92 0.9 SSE 15 22 8 12 1019.1 1019.1 3.4
28/02:00pm 22.6 23.9 20.9 90 1.1 S 15 24 8 13 1018.8 1018.8 2.6
28/01:30pm 24.9 26.8 21.4 81 2.3 SSW 13 19 7 10 1018.8 1018.8 1.2
28/01:00pm 23.9 25.5 20.8 83 2.0 SW 13 17 7 9 1019.5 1019.5 1.2
28/12:30pm 23.2 24.8 20.7 86 1.6 SW 13 15 7 8 1019.6 1019.6 1.2
28/12:00pm 22.9 24.3 21.0 89 1.2 SW 15 19 8 10 1019.9 1019.9 1.2
28/11:30am 22.3 24.8 21.1 93 0.8 WSW 9 13 5 7 1020.4 1020.4 1.2
28/11:00am 21.7 24.1 20.9 95 0.5 W 9 11 5 6 1020.6 1020.6 1.0
28/10:30am 21.1 23.3 20.4 96 0.5 W 9 13 5 7 1020.5 1020.5 1.0
28/10:00am 20.7 23.0 19.9 95 0.5 S 7 13 4 7 1020.6 1020.6 1.0
28/09:30am 20.6 21.8 19.9 96 0.4 WSW 13 15 7 8 1020.2 1020.2 0.0
28/09:00am 20.3 21.8 19.8 97 0.3 W 11 13 6 7 1020.3 1020.3 33.0
28/08:49am 20.0 21.8 19.5 97 0.3 WNW 9 13 5 7 1020.5 1020.5 33.0
28/08:30am 19.8 20.7 19.3 97 0.3 NE 13 26 7 14 1020.8 1020.8 31.8
28/08:28am 19.9 21.2 19.4 97 0.3 ESE 11 26 6 14 1021.0 1021.0 30.6
28/08:00am 19.7 20.6 19.2 97 0.3 WSW 13 17 7 9 1020.0 1020.0 29.0
28/07:30am 19.3 20.0 18.8 97 0.3 WNW 13 17 7 9 1019.7 1019.7 29.0
28/07:25am 19.4 20.1 18.9 97 0.3 WNW 13 17 7 9 1019.7 1019.7 29.0
28/07:18am 19.4 20.1 18.9 97 0.3 NW 13 20 7 11 1019.7 1019.7 28.6
28/07:05am 19.6 19.1 19.1 97 0.3 NNW 20 35 11 19 1019.8 1019.8 28.0
28/07:00am 19.7 20.2 19.2 97 0.3 NNW 15 35 8 19 1019.9 1019.9 20.4
28/06:59am 19.4 19.8 18.9 97 0.3 NNW 15 35 8 19 1019.8 1019.8 18.6
28/06:30am 19.3 20.8 18.8 97 0.3 WSW 9 13 5 7 1019.2 1019.2 15.2
28/06:00am 19.1 20.9 18.8 98 0.2 W 7 9 4 5 1019.2 1019.2 15.2
28/05:30am 19.0 20.3 18.5 97 0.3 W 9 13 5 7 1019.4 1019.4 15.0
28/05:00am 19.0 22.0 18.5 97 0.3 CALM 0 0 0 0 1019.2 1019.2 13.8
28/04:30am 18.9 20.3 18.6 98 0.2 WSW 9 13 5 7 1018.7 1018.7 13.8
28/04:00am 18.8 20.5 18.5 98 0.2 SW 7 9 4 5 1018.9 1018.9 13.6
28/03:30am 19.0 20.8 18.7 98 0.2 WNW 7 11 4 6 1019.5 1019.5 13.6
28/03:14am 19.1 20.6 18.8 98 0.2 SW 9 11 5 6 1019.9 1019.9 13.6
28/03:00am 18.9 19.1 18.6 98 0.2 SSW 15 22 8 12 1020.0 1020.0 13.6
28/02:50am 18.4 20.0 17.9 97 0.3 SSW 6 15 3 8 1020.0 1020.0 9.6
28/02:30am 18.4 20.8 17.9 97 0.3 W 2 7 1 4 1019.7 1019.7 7.0
28/02:00am 17.8 19.2 17.3 97 0.3 SW 6 7 3 4 1020.0 1020.0 7.0
28/01:30am 18.1 19.6 17.6 97 0.3 SW 6 6 3 3 1020.3 1020.3 7.0
28/01:00am 18.4 20.0 17.9 97 0.3 W 6 6 3 3 1020.3 1020.3 7.0
28/12:40am 18.5 20.1 17.9 96 0.4 SW 6 7 3 4 1020.6 1020.6 7.0
28/12:30am 18.6 20.3 18.1 97 0.3 SW 6 6 3 3 1020.7 1020.7 7.0
28/12:01am 18.7 21.1 18.0 96 0.4 SW 2 6 1 3 1020.7 1020.7 7.0
28/12:00am 18.7 21.1 18.0 96 0.4 SW 2 6 1 3 1020.7 1020.7 7.0
 
Date/Time
EDT
Temp
°C
App
Temp
°C
Dew
Point
°C
Rel
Hum
%
Delta-T
°C
Wind Press
QNH
hPa
Press
MSL
hPa
Rain since
9am
mm
Dir  Spd
km/h
Gust
km/h
Spd
kts
Gust
kts
27/11:47pm 18.9 20.7 18.2 96 0.4 SW 6 6 3 3 1020.7 1020.7 7.0
27/11:30pm 18.9 20.5 18.2 96 0.4 SW 7 7 4 4 1020.7 1020.7 7.0
27/11:28pm 19.0 20.6 18.3 96 0.4 SW 7 9 4 5 1020.7 1020.7 7.0
27/11:00pm 19.4 22.5 18.6 95 0.5 CALM 0 2 0 1 1021.0 1021.0 7.0
27/10:30pm 20.0 22.6 19.3 96 0.4 WSW 4 7 2 4 1021.2 1021.2 7.0
27/10:00pm 20.1 23.5 19.3 95 0.5 CALM 0 0 0 0 1021.1 1021.1 7.0
27/09:30pm 20.4 22.5 19.4 94 0.6 WSW 7 11 4 6 1021.0 1021.0 7.0
27/09:01pm 20.7 22.9 19.7 94 0.6 SW 7 9 4 5 1020.9 1020.9 7.0
27/09:00pm 20.7 22.9 19.7 94 0.6 SW 7 9 4 5 1020.9 1020.9 7.0
27/08:36pm 20.6 23.0 19.6 94 0.6 SW 6 11 3 6 1020.7 1020.7 1.8
27/08:30pm 20.6 22.3 19.4 93 0.8 SW 9 11 5 6 1020.4 1020.4 0.0
27/08:00pm 20.6 22.3 19.3 92 0.8 SSW 9 9 5 5 1020.3 1020.3 0.0
27/07:30pm 21.2 22.4 19.8 92 0.9 S 13 19 7 10 1020.0 1020.0 0.0
27/07:00pm 21.9 21.9 19.8 88 1.3 S 19 24 10 13 1019.8 1019.8 0.0
27/06:30pm 23.6 23.1 19.1 76 2.9 S 20 30 11 16 1019.7 1019.7 0.0
27/06:00pm 23.6 23.9 19.5 78 2.6 S 17 26 9 14 1019.3 1019.3 0.0
27/05:30pm 23.6 23.0 19.7 79 2.5 S 22 32 12 17 1019.1 1019.1 0.0
27/05:00pm 23.9 24.1 20.2 80 2.4 S 19 26 10 14 1019.3 1019.3 0.0
27/04:30pm 24.2 24.5 19.7 76 2.9 SSE 17 24 9 13 1019.3 1019.3 0.0
27/04:00pm 24.3 23.9 18.0 68 3.9 SSW 17 22 9 12 1018.7 1018.7 0.0
27/03:30pm 25.1 24.9 18.5 67 4.2 S 17 26 9 14 1019.2 1019.2 0.0
27/03:00pm 25.0 26.0 20.3 75 3.1 S 15 20 8 11 1019.6 1019.6 0.0
27/02:30pm 24.4 24.3 19.9 76 2.9 SSW 20 32 11 17 1019.9 1019.9 0.0
27/02:00pm 24.3 23.3 19.6 75 3.0 S 24 33 13 18 1020.0 1020.0 0.0
27/01:30pm 24.0 23.2 19.3 75 3.0 S 22 32 12 17 1020.3 1020.3 0.0
27/01:00pm 25.6 25.1 19.0 67 4.2 S 20 32 11 17 1020.7 1020.7 0.0
27/12:30pm 24.7 23.0 18.2 67 4.1 S 24 32 13 17 1020.5 1020.5 0.0
27/12:00pm 25.3 24.8 19.2 69 3.9 S 20 28 11 15 1020.6 1020.6 0.0
27/11:30am 24.3 24.3 18.2 68 3.8 SSW 15 20 8 11 1020.7 1020.7 0.0
27/11:00am 22.8 22.3 19.0 79 2.4 S 20 28 11 15 1020.7 1020.7 0.0
27/10:30am 23.1 23.4 19.7 81 2.2 SSW 17 22 9 12 1021.0 1021.0 0.0
27/10:00am 23.5 24.8 19.4 78 2.6 SW 11 17 6 9 1020.7 1020.7 0.0
27/09:30am 21.6 23.1 19.7 89 1.2 WSW 11 17 6 9 1020.6 1020.6 0.0
27/09:00am 19.8 21.5 18.6 93 0.7 WSW 7 9 4 5 1020.6 1020.6 12.0
27/08:30am 19.3 20.2 18.3 94 0.6 WSW 11 13 6 7 1020.3 1020.3 12.0
27/08:00am 19.0 20.8 18.2 95 0.5 SW 6 9 3 5 1020.0 1020.0 12.0
27/07:30am 19.1 19.5 18.1 94 0.6 WSW 13 17 7 9 1019.9 1019.9 12.0
27/07:00am 18.9 19.2 17.9 94 0.6 WSW 13 17 7 9 1019.5 1019.5 11.4
27/06:30am 18.5 19.4 17.5 94 0.6 SW 9 9 5 5 1019.6 1019.6 9.6
27/06:00am 18.8 20.6 17.3 91 0.9 WSW 4 9 2 5 1019.4 1019.4 9.6
27/05:30am 18.9 19.8 17.6 92 0.8 WSW 9 13 5 7 1019.2 1019.2 9.6
27/05:00am 18.6 19.7 17.1 91 0.9 W 7 9 4 5 1018.7 1018.7 9.6
27/04:30am 18.6 19.3 17.1 91 0.9 WNW 9 13 5 7 1018.4 1018.4 9.6
27/04:00am 18.4 19.5 17.1 92 0.8 WSW 7 9 4 5 1018.7 1018.7 9.6
27/03:30am 18.2 19.3 17.0 93 0.7 WSW 7 9 4 5 1019.0 1019.0 9.6
27/03:00am 18.5 19.6 16.7 89 1.1 WSW 6 9 3 5 1018.8 1018.8 9.6
27/02:30am 19.2 20.0 17.2 88 1.2 W 9 11 5 6 1019.1 1019.1 9.6
27/02:00am 19.4 20.6 17.4 88 1.2 W 7 9 4 5 1019.5 1019.5 9.6
27/01:30am 19.6 20.2 17.6 88 1.2 W 11 13 6 7 1019.2 1019.2 9.6
27/01:00am 19.8 21.0 17.4 86 1.5 W 7 11 4 6 1019.8 1019.8 9.6
27/12:30am 20.1 20.2 17.5 85 1.6 WSW 13 19 7 10 1019.6 1019.6 9.6
27/12:00am 20.4 20.6 17.6 84 1.7 WSW 13 20 7 11 1020.0 1020.0 9.6
 
Date/Time
EDT
Temp
°C
App
Temp
°C
Dew
Point
°C
Rel
Hum
%
Delta-T
°C
Wind Press
QNH
hPa
Press
MSL
hPa
Rain since
9am
mm
Dir  Spd
km/h
Gust
km/h
Spd
kts
Gust
kts
26/11:30pm 20.2 20.4 17.6 85 1.6 WSW 13 17 7 9 1020.0 1020.0 9.6
26/11:00pm 20.3 20.8 17.5 84 1.7 WSW 11 17 6 9 1020.1 1020.1 9.6
26/10:30pm 20.7 20.9 17.7 83 1.8 WSW 13 17 7 9 1020.1 1020.1 9.6
26/10:00pm 21.1 21.0 17.9 82 2.0 SW 15 20 8 11 1019.9 1019.9 9.6
26/09:30pm 20.9 20.8 17.9 83 1.9 SW 15 20 8 11 1019.9 1019.9 9.6
26/09:00pm 20.8 21.8 17.8 83 1.8 WSW 9 11 5 6 1020.0 1020.0 9.6
26/08:30pm 21.4 21.1 17.4 78 2.5 SW 15 22 8 12 1020.0 1020.0 9.6
26/08:00pm 21.8 20.8 17.6 77 2.6 SSW 19 26 10 14 1019.9 1019.9 9.6
26/07:30pm 21.8 22.0 17.6 77 2.6 SW 13 17 7 9 1019.4 1019.4 9.6
26/07:00pm 22.5 21.3 17.6 74 3.0 SSW 20 30 11 16 1018.8 1018.8 9.6
26/06:30pm 22.7 21.5 17.4 72 3.3 SSW 20 30 11 16 1018.7 1018.7 9.6
26/06:00pm 23.0 21.9 17.2 70 3.6 SSW 19 30 10 16 1018.6 1018.6 9.6
26/05:30pm 23.2 20.7 17.0 68 3.8 SSW 26 37 14 20 1018.5 1018.5 9.6
26/05:00pm 23.8 21.7 18.0 70 3.6 S 26 35 14 19 1018.5 1018.5 9.6
26/04:30pm 23.9 22.9 17.9 69 3.8 SSW 20 32 11 17 1018.4 1018.4 9.6
26/04:00pm 23.9 22.3 18.3 71 3.5 S 24 35 13 19 1018.4 1018.4 9.6
26/03:30pm 24.3 23.6 18.7 71 3.6 S 20 30 11 16 1018.5 1018.5 9.6
26/03:00pm 24.5 23.7 18.4 69 3.8 S 20 30 11 16 1018.5 1018.5 9.6
26/02:30pm 24.3 23.4 18.2 68 3.8 SSW 20 28 11 15 1018.9 1018.9 9.6
26/02:00pm 23.7 23.5 19.4 77 2.7 SSW 19 26 10 14 1019.1 1019.1 9.6
26/01:30pm 23.4 24.0 20.3 83 2.0 SW 17 24 9 13 1019.3 1019.3 9.6
26/01:00pm 22.2 24.5 20.7 91 1.0 W 9 13 5 7 1019.5 1019.5 9.6
26/12:30pm 20.9 23.1 19.7 93 0.8 W 7 11 4 6 1019.7 1019.7 9.6
26/12:00pm 20.3 22.1 19.6 96 0.4 WSW 9 11 5 6 1019.6 1019.6 9.6
26/11:30am 19.8 20.7 19.3 97 0.3 WNW 13 20 7 11 1019.7 1019.7 9.6
26/11:01am 19.9 20.9 19.4 97 0.3 NW 13 17 7 9 1019.8 1019.8 9.6
26/11:00am 19.9 20.9 19.4 97 0.3 NW 13 17 7 9 1019.8 1019.8 9.6
26/10:35am 20.0 20.9 19.3 96 0.4 WSW 13 17 7 9 1020.2 1020.2 5.0
26/10:30am 19.9 20.8 19.2 96 0.4 WSW 13 17 7 9 1020.0 1020.0 4.0
26/10:00am 20.3 21.4 19.6 96 0.4 W 13 19 7 10 1019.6 1019.6 1.6
26/09:30am 20.3 21.8 19.8 97 0.3 WSW 11 13 6 7 1019.3 1019.3 0.2
26/09:00am 20.2 22.4 19.7 97 0.3 W 7 11 4 6 1019.2 1019.2 30.2
26/08:41am 19.9 21.9 19.2 96 0.4 W 7 11 4 6 1019.1 1019.1 29.8
26/08:30am 20.0 23.0 19.3 96 0.4 E 2 7 1 4 1018.9 1018.9 29.4
26/08:00am 19.7 20.8 18.9 95 0.5 SSE 11 17 6 9 1018.7 1018.7 27.4
26/07:46am 19.8 21.0 19.1 96 0.4 SSW 11 17 6 9 1018.7 1018.7 25.8
26/07:30am 19.9 20.8 19.2 96 0.4 SW 13 15 7 8 1018.3 1018.3 25.8
26/07:13am 19.8 20.6 19.1 96 0.4 SSE 13 19 7 10 1018.1 1018.1 25.4
26/07:03am 19.7 21.2 19.0 96 0.4 NW 9 15 5 8 1017.8 1017.8 24.8
26/07:00am 19.7 20.9 19.0 96 0.4 NW 11 17 6 9 1017.6 1017.6 24.4
26/06:37am 19.5 20.9 18.7 95 0.5 SSW 9 15 5 8 1017.4 1017.4 20.0
26/06:30am 19.6 21.7 18.9 96 0.4 S 6 9 3 5 1017.3 1017.3 17.8
26/06:00am 19.8 22.0 19.1 96 0.4 SSW 6 7 3 4 1016.9 1016.9 17.8
26/05:30am 19.9 21.5 19.2 96 0.4 WSW 9 11 5 6 1016.3 1016.3 17.8
26/05:00am 19.8 21.8 19.1 96 0.4 W 7 9 4 5 1016.6 1016.6 17.8
26/04:32am 20.0 22.0 19.2 95 0.5 NW 7 9 4 5 1016.3 1016.3 17.8
26/04:30am 20.0 22.0 19.2 95 0.5 NW 7 9 4 5 1016.3 1016.3 17.8
26/04:21am 20.2 22.5 19.4 95 0.5 W 6 9 3 5 1016.5 1016.5 17.8
26/04:15am 20.2 22.9 19.4 95 0.5 S 4 7 2 4 1016.5 1016.5 17.8
26/04:00am 20.1 20.9 19.1 94 0.6 ESE 13 19 7 10 1016.7 1016.7 17.6
26/03:30am 19.9 21.1 19.1 95 0.5 SSW 11 13 6 7 1016.6 1016.6 14.8
26/03:00am 20.1 22.3 19.3 95 0.5 W 6 9 3 5 1016.6 1016.6 14.8
26/02:30am 20.4 23.2 19.7 96 0.4 WSW 4 7 2 4 1016.8 1016.8 14.8
26/02:00am 20.9 23.4 20.2 96 0.4 WSW 7 9 4 5 1017.3 1017.3 14.8
26/01:30am 20.8 22.8 20.0 95 0.5 WSW 9 11 5 6 1017.6 1017.6 14.8
26/01:00am 20.8 23.4 20.1 96 0.4 W 6 9 3 5 1017.7 1017.7 14.4
26/12:30am 20.6 22.9 19.9 96 0.4 S 7 9 4 5 1017.8 1017.8 14.4
26/12:00am 20.9 23.5 20.1 95 0.5 WSW 6 7 3 4 1017.8 1017.8 14.4
 
Date/Time
EDT
Temp
°C
App
Temp
°C
Dew
Point
°C
Rel
Hum
%
Delta-T
°C
Wind Press
QNH
hPa
Press
MSL
hPa
Rain since
9am
mm
Dir  Spd
km/h
Gust
km/h
Spd
kts
Gust
kts
25/11:30pm 20.9 23.6 20.2 96 0.4 WSW 6 9 3 5 1018.0 1018.0 14.4
25/11:00pm 21.0 23.5 20.3 96 0.4 W 7 9 4 5 1018.0 1018.0 14.4
25/10:30pm 20.9 23.6 20.2 96 0.4 WSW 6 9 3 5 1018.2 1018.2 13.4
25/10:00pm 20.8 23.4 20.0 95 0.5 W 6 7 3 4 1018.1 1018.1 13.4
25/09:40pm 20.9 23.3 20.1 95 0.5 WNW 7 9 4 5 1018.1 1018.1 13.4
25/09:38pm 20.8 23.1 19.8 94 0.6 WNW 7 7 4 4 1018.1 1018.1 13.4
25/09:30pm 21.0 23.4 20.0 94 0.6 W 7 11 4 6 1018.2 1018.2 13.4
25/09:19pm 21.0 21.4 19.8 93 0.8 SSW 17 30 9 16 1018.4 1018.4 11.4
25/09:09pm 21.1 20.6 19.0 88 1.3 SSW 20 39 11 21 1018.4 1018.4 2.6
25/09:08pm 21.5 21.3 19.4 88 1.3 SSW 19 39 10 21 1018.2 1018.2 1.4
25/09:00pm 22.3 23.9 19.1 82 2.0 WSW 9 15 5 8 1018.0 1018.0 0.0
25/08:30pm 22.7 24.5 18.7 78 2.5 SW 7 9 4 5 1017.7 1017.7 0.0
25/08:00pm 23.5 24.6 18.8 75 3.0 SSE 11 15 6 8 1017.3 1017.3 0.0
25/07:30pm 23.5 24.1 18.6 74 3.1 S 13 17 7 9 1016.9 1016.9 0.0
25/07:00pm 24.3 24.9 18.7 71 3.5 S 13 19 7 10 1016.7 1016.7 0.0

Other Formats:

Comma delimited format used in spreadsheet applications
http://www.bom.gov.au/fwo/IDN60801/IDN60801.94786.axf

JavaScript Object Notation format (JSON) in row-major order
http://www.bom.gov.au/fwo/IDN60801/IDN60801.94786.json